sensor_id;sensor_type;location;lat;lon;timestamp;P1;durP1;ratioP1;P2;durP2;ratioP2
56161;SDS011;42045;52.986;6.014;2023-03-31T00:01:17;41.92;;;8.13;;
56161;SDS011;42045;52.986;6.014;2023-03-31T00:03:43;31.83;;;6.95;;
56161;SDS011;42045;52.986;6.014;2023-03-31T00:06:10;34.08;;;6.72;;
56161;SDS011;42045;52.986;6.014;2023-03-31T00:08:42;36.22;;;7.38;;
56161;SDS011;42045;52.986;6.014;2023-03-31T00:11:08;31.42;;;6.38;;
56161;SDS011;42045;52.986;6.014;2023-03-31T00:13:34;41.17;;;9.00;;
56161;SDS011;42045;52.986;6.014;2023-03-31T00:16:07;29.88;;;6.15;;
56161;SDS011;42045;52.986;6.014;2023-03-31T00:21:10;31.30;;;7.30;;
56161;SDS011;42045;52.986;6.014;2023-03-31T00:23:38;26.45;;;6.45;;
56161;SDS011;42045;52.986;6.014;2023-03-31T00:26:05;28.58;;;6.60;;
56161;SDS011;42045;52.986;6.014;2023-03-31T00:28:31;33.05;;;7.22;;
56161;SDS011;42045;52.986;6.014;2023-03-31T00:31:01;35.28;;;6.50;;
56161;SDS011;42045;52.986;6.014;2023-03-31T00:33:27;36.25;;;8.13;;
56161;SDS011;42045;52.986;6.014;2023-03-31T00:35:54;36.95;;;8.00;;
56161;SDS011;42045;52.986;6.014;2023-03-31T00:38:20;31.63;;;7.10;;
56161;SDS011;42045;52.986;6.014;2023-03-31T00:40:46;31.20;;;6.57;;
56161;SDS011;42045;52.986;6.014;2023-03-31T00:43:29;39.72;;;9.25;;
56161;SDS011;42045;52.986;6.014;2023-03-31T00:46:21;35.53;;;7.22;;
56161;SDS011;42045;52.986;6.014;2023-03-31T00:48:52;32.95;;;6.72;;
56161;SDS011;42045;52.986;6.014;2023-03-31T00:51:23;33.03;;;6.70;;
56161;SDS011;42045;52.986;6.014;2023-03-31T00:53:53;39.42;;;7.35;;
56161;SDS011;42045;52.986;6.014;2023-03-31T00:56:25;26.70;;;6.82;;
56161;SDS011;42045;52.986;6.014;2023-03-31T00:58:52;34.90;;;7.68;;
56161;SDS011;42045;52.986;6.014;2023-03-31T01:01:23;29.48;;;7.53;;
56161;SDS011;42045;52.986;6.014;2023-03-31T01:03:50;30.67;;;7.35;;
56161;SDS011;42045;52.986;6.014;2023-03-31T01:06:16;29.38;;;8.32;;
56161;SDS011;42045;52.986;6.014;2023-03-31T01:08:47;31.73;;;8.50;;
56161;SDS011;42045;52.986;6.014;2023-03-31T01:11:23;32.17;;;6.47;;
56161;SDS011;42045;52.986;6.014;2023-03-31T01:13:52;29.95;;;6.97;;
56161;SDS011;42045;52.986;6.014;2023-03-31T01:16:20;27.92;;;6.68;;
56161;SDS011;42045;52.986;6.014;2023-03-31T01:18:46;34.75;;;6.75;;
56161;SDS011;42045;52.986;6.014;2023-03-31T01:41:36;29.75;;;6.53;;
56161;SDS011;42045;52.986;6.014;2023-03-31T01:49:29;23.35;;;5.82;;
56161;SDS011;42045;52.986;6.014;2023-03-31T01:52:03;27.02;;;5.28;;
56161;SDS011;42045;52.986;6.014;2023-03-31T01:54:45;27.23;;;5.50;;
56161;SDS011;42045;52.986;6.014;2023-03-31T01:59:58;28.88;;;6.10;;
56161;SDS011;42045;52.986;6.014;2023-03-31T02:02:41;31.77;;;8.13;;
56161;SDS011;42045;52.986;6.014;2023-03-31T02:05:18;28.92;;;6.82;;
56161;SDS011;42045;52.986;6.014;2023-03-31T02:07:56;28.27;;;7.18;;
56161;SDS011;42045;52.986;6.014;2023-03-31T02:10:27;25.27;;;6.18;;
56161;SDS011;42045;52.986;6.014;2023-03-31T02:12:55;34.17;;;6.68;;
56161;SDS011;42045;52.986;6.014;2023-03-31T02:15:25;22.63;;;5.18;;
56161;SDS011;42045;52.986;6.014;2023-03-31T02:17:54;31.40;;;6.05;;
56161;SDS011;42045;52.986;6.014;2023-03-31T02:20:23;25.63;;;5.47;;
56161;SDS011;42045;52.986;6.014;2023-03-31T02:22:52;33.97;;;5.95;;
56161;SDS011;42045;52.986;6.014;2023-03-31T02:25:20;30.77;;;5.80;;
56161;SDS011;42045;52.986;6.014;2023-03-31T02:27:53;27.08;;;6.65;;
56161;SDS011;42045;52.986;6.014;2023-03-31T02:30:22;25.20;;;5.45;;
56161;SDS011;42045;52.986;6.014;2023-03-31T02:32:53;32.53;;;7.15;;
56161;SDS011;42045;52.986;6.014;2023-03-31T02:35:20;27.88;;;6.93;;
56161;SDS011;42045;52.986;6.014;2023-03-31T02:37:47;29.30;;;6.13;;
56161;SDS011;42045;52.986;6.014;2023-03-31T02:40:19;24.45;;;6.15;;
56161;SDS011;42045;52.986;6.014;2023-03-31T02:42:46;29.75;;;5.13;;
56161;SDS011;42045;52.986;6.014;2023-03-31T02:47:57;29.20;;;5.15;;
56161;SDS011;42045;52.986;6.014;2023-03-31T02:50:23;22.95;;;6.22;;
56161;SDS011;42045;52.986;6.014;2023-03-31T02:53:02;25.07;;;6.70;;
56161;SDS011;42045;52.986;6.014;2023-03-31T02:55:55;26.45;;;6.22;;
56161;SDS011;42045;52.986;6.014;2023-03-31T02:58:48;21.75;;;5.80;;
56161;SDS011;42045;52.986;6.014;2023-03-31T03:07:06;25.70;;;5.18;;
56161;SDS011;42045;52.986;6.014;2023-03-31T03:10:07;25.02;;;6.43;;
56161;SDS011;42045;52.986;6.014;2023-03-31T03:17:32;21.35;;;5.82;;
56161;SDS011;42045;52.986;6.014;2023-03-31T03:20:00;18.00;;;4.65;;
56161;SDS011;42045;52.986;6.014;2023-03-31T03:22:31;20.10;;;5.38;;
56161;SDS011;42045;52.986;6.014;2023-03-31T03:24:57;22.50;;;6.18;;
56161;SDS011;42045;52.986;6.014;2023-03-31T03:27:22;15.60;;;5.82;;
56161;SDS011;42045;52.986;6.014;2023-03-31T03:29:48;23.88;;;7.07;;
56161;SDS011;42045;52.986;6.014;2023-03-31T03:32:14;16.77;;;5.80;;
56161;SDS011;42045;52.986;6.014;2023-03-31T03:34:40;22.90;;;6.68;;
56161;SDS011;42045;52.986;6.014;2023-03-31T03:37:05;14.80;;;6.28;;
56161;SDS011;42045;52.986;6.014;2023-03-31T03:39:31;22.50;;;8.15;;
56161;SDS011;42045;52.986;6.014;2023-03-31T03:41:57;25.05;;;7.90;;
56161;SDS011;42045;52.986;6.014;2023-03-31T03:44:23;23.50;;;7.43;;
56161;SDS011;42045;52.986;6.014;2023-03-31T03:46:48;20.55;;;7.15;;
56161;SDS011;42045;52.986;6.014;2023-03-31T03:49:14;20.00;;;6.40;;
56161;SDS011;42045;52.986;6.014;2023-03-31T03:51:40;22.67;;;7.90;;
56161;SDS011;42045;52.986;6.014;2023-03-31T03:54:05;23.52;;;6.70;;
56161;SDS011;42045;52.986;6.014;2023-03-31T03:56:31;22.05;;;7.85;;
56161;SDS011;42045;52.986;6.014;2023-03-31T03:58:57;18.85;;;7.43;;
56161;SDS011;42045;52.986;6.014;2023-03-31T04:01:22;18.38;;;7.03;;
56161;SDS011;42045;52.986;6.014;2023-03-31T04:03:48;18.40;;;8.35;;
56161;SDS011;42045;52.986;6.014;2023-03-31T04:06:14;20.98;;;7.53;;
56161;SDS011;42045;52.986;6.014;2023-03-31T04:08:39;25.80;;;6.90;;
56161;SDS011;42045;52.986;6.014;2023-03-31T04:11:12;23.98;;;7.20;;
56161;SDS011;42045;52.986;6.014;2023-03-31T04:13:41;20.48;;;7.82;;
56161;SDS011;42045;52.986;6.014;2023-03-31T04:16:07;18.88;;;7.55;;
56161;SDS011;42045;52.986;6.014;2023-03-31T04:18:33;27.15;;;7.93;;
56161;SDS011;42045;52.986;6.014;2023-03-31T04:21:01;15.27;;;7.43;;
56161;SDS011;42045;52.986;6.014;2023-03-31T04:23:31;20.48;;;7.28;;
56161;SDS011;42045;52.986;6.014;2023-03-31T04:25:58;16.88;;;7.50;;
56161;SDS011;42045;52.986;6.014;2023-03-31T04:28:24;20.55;;;6.95;;
56161;SDS011;42045;52.986;6.014;2023-03-31T04:30:53;25.67;;;7.75;;
56161;SDS011;42045;52.986;6.014;2023-03-31T04:33:22;16.80;;;6.95;;
56161;SDS011;42045;52.986;6.014;2023-03-31T04:35:48;23.42;;;7.90;;
56161;SDS011;42045;52.986;6.014;2023-03-31T04:38:18;15.40;;;7.53;;
56161;SDS011;42045;52.986;6.014;2023-03-31T04:40:45;17.33;;;7.70;;
56161;SDS011;42045;52.986;6.014;2023-03-31T04:43:12;21.65;;;8.30;;
56161;SDS011;42045;52.986;6.014;2023-03-31T04:45:39;24.13;;;8.30;;
56161;SDS011;42045;52.986;6.014;2023-03-31T04:48:05;23.45;;;8.00;;
56161;SDS011;42045;52.986;6.014;2023-03-31T04:50:31;20.08;;;8.88;;
56161;SDS011;42045;52.986;6.014;2023-03-31T04:52:56;21.77;;;7.70;;
56161;SDS011;42045;52.986;6.014;2023-03-31T04:55:22;20.00;;;8.65;;
56161;SDS011;42045;52.986;6.014;2023-03-31T04:57:48;16.67;;;8.80;;
56161;SDS011;42045;52.986;6.014;2023-03-31T05:00:15;16.35;;;8.32;;
56161;SDS011;42045;52.986;6.014;2023-03-31T05:02:42;23.48;;;8.77;;
56161;SDS011;42045;52.986;6.014;2023-03-31T05:05:08;14.95;;;8.50;;
56161;SDS011;42045;52.986;6.014;2023-03-31T05:07:34;22.90;;;10.05;;
56161;SDS011;42045;52.986;6.014;2023-03-31T05:10:00;21.55;;;9.25;;
56161;SDS011;42045;52.986;6.014;2023-03-31T05:12:26;13.98;;;8.75;;
56161;SDS011;42045;52.986;6.014;2023-03-31T05:14:52;24.58;;;9.60;;
56161;SDS011;42045;52.986;6.014;2023-03-31T05:17:18;23.65;;;10.63;;
56161;SDS011;42045;52.986;6.014;2023-03-31T05:19:43;23.15;;;9.93;;
56161;SDS011;42045;52.986;6.014;2023-03-31T05:22:09;25.33;;;10.57;;
56161;SDS011;42045;52.986;6.014;2023-03-31T05:24:35;25.42;;;11.25;;
56161;SDS011;42045;52.986;6.014;2023-03-31T05:27:01;26.25;;;11.40;;
56161;SDS011;42045;52.986;6.014;2023-03-31T05:29:26;26.15;;;10.38;;
56161;SDS011;42045;52.986;6.014;2023-03-31T05:31:52;25.63;;;10.75;;
56161;SDS011;42045;52.986;6.014;2023-03-31T05:34:18;25.42;;;11.15;;
56161;SDS011;42045;52.986;6.014;2023-03-31T05:36:44;21.92;;;10.73;;
56161;SDS011;42045;52.986;6.014;2023-03-31T05:39:12;20.98;;;9.73;;
56161;SDS011;42045;52.986;6.014;2023-03-31T05:41:38;24.48;;;10.63;;
56161;SDS011;42045;52.986;6.014;2023-03-31T05:44:04;21.58;;;10.10;;
56161;SDS011;42045;52.986;6.014;2023-03-31T05:46:30;28.75;;;12.40;;
56161;SDS011;42045;52.986;6.014;2023-03-31T05:48:56;22.20;;;9.45;;
56161;SDS011;42045;52.986;6.014;2023-03-31T05:51:22;23.92;;;9.02;;
56161;SDS011;42045;52.986;6.014;2023-03-31T05:53:48;19.00;;;8.68;;
56161;SDS011;42045;52.986;6.014;2023-03-31T05:56:14;19.77;;;7.72;;
56161;SDS011;42045;52.986;6.014;2023-03-31T05:58:40;19.33;;;8.52;;
56161;SDS011;42045;52.986;6.014;2023-03-31T06:01:13;14.38;;;7.38;;
56161;SDS011;42045;52.986;6.014;2023-03-31T06:03:43;14.32;;;7.75;;
56161;SDS011;42045;52.986;6.014;2023-03-31T06:06:09;18.42;;;6.88;;
56161;SDS011;42045;52.986;6.014;2023-03-31T06:08:39;12.95;;;6.07;;
56161;SDS011;42045;52.986;6.014;2023-03-31T06:11:09;17.98;;;6.20;;
56161;SDS011;42045;52.986;6.014;2023-03-31T06:13:39;12.40;;;6.13;;
56161;SDS011;42045;52.986;6.014;2023-03-31T06:16:05;15.35;;;6.82;;
56161;SDS011;42045;52.986;6.014;2023-03-31T06:18:32;12.85;;;5.72;;
56161;SDS011;42045;52.986;6.014;2023-03-31T06:20:59;17.00;;;6.72;;
56161;SDS011;42045;52.986;6.014;2023-03-31T06:23:25;14.05;;;6.32;;
56161;SDS011;42045;52.986;6.014;2023-03-31T06:25:51;14.48;;;6.38;;
56161;SDS011;42045;52.986;6.014;2023-03-31T06:28:18;14.20;;;6.97;;
56161;SDS011;42045;52.986;6.014;2023-03-31T06:30:45;14.10;;;6.25;;
56161;SDS011;42045;52.986;6.014;2023-03-31T06:33:11;17.13;;;7.00;;
56161;SDS011;42045;52.986;6.014;2023-03-31T06:35:38;16.98;;;6.75;;
56161;SDS011;42045;52.986;6.014;2023-03-31T06:38:05;13.27;;;6.07;;
56161;SDS011;42045;52.986;6.014;2023-03-31T06:40:31;12.43;;;5.70;;
56161;SDS011;42045;52.986;6.014;2023-03-31T06:42:57;12.50;;;5.85;;
56161;SDS011;42045;52.986;6.014;2023-03-31T06:45:22;18.23;;;6.88;;
56161;SDS011;42045;52.986;6.014;2023-03-31T06:47:48;16.85;;;5.93;;
56161;SDS011;42045;52.986;6.014;2023-03-31T06:50:13;17.33;;;6.72;;
56161;SDS011;42045;52.986;6.014;2023-03-31T06:52:39;11.63;;;6.15;;
56161;SDS011;42045;52.986;6.014;2023-03-31T06:55:05;13.45;;;6.10;;
56161;SDS011;42045;52.986;6.014;2023-03-31T06:57:32;12.98;;;5.57;;
56161;SDS011;42045;52.986;6.014;2023-03-31T06:59:58;14.60;;;5.50;;
56161;SDS011;42045;52.986;6.014;2023-03-31T07:02:25;10.70;;;5.72;;
56161;SDS011;42045;52.986;6.014;2023-03-31T07:04:51;12.52;;;5.65;;
56161;SDS011;42045;52.986;6.014;2023-03-31T07:07:16;13.35;;;5.32;;
56161;SDS011;42045;52.986;6.014;2023-03-31T07:09:42;14.50;;;5.53;;
56161;SDS011;42045;52.986;6.014;2023-03-31T07:12:08;12.88;;;6.00;;
56161;SDS011;42045;52.986;6.014;2023-03-31T07:14:34;11.23;;;4.88;;
56161;SDS011;42045;52.986;6.014;2023-03-31T07:17:01;10.98;;;5.47;;
56161;SDS011;42045;52.986;6.014;2023-03-31T07:19:27;11.77;;;5.93;;
56161;SDS011;42045;52.986;6.014;2023-03-31T07:21:52;8.63;;;5.80;;
56161;SDS011;42045;52.986;6.014;2023-03-31T07:24:20;9.07;;;5.70;;
56161;SDS011;42045;52.986;6.014;2023-03-31T07:26:46;14.55;;;6.90;;
56161;SDS011;42045;52.986;6.014;2023-03-31T07:29:12;10.70;;;5.65;;
56161;SDS011;42045;52.986;6.014;2023-03-31T07:31:38;11.05;;;6.55;;
56161;SDS011;42045;52.986;6.014;2023-03-31T07:34:03;14.18;;;6.32;;
56161;SDS011;42045;52.986;6.014;2023-03-31T07:36:29;13.18;;;5.72;;
56161;SDS011;42045;52.986;6.014;2023-03-31T07:38:56;14.38;;;6.45;;
56161;SDS011;42045;52.986;6.014;2023-03-31T07:41:22;14.98;;;7.38;;
56161;SDS011;42045;52.986;6.014;2023-03-31T07:43:48;12.52;;;6.40;;
56161;SDS011;42045;52.986;6.014;2023-03-31T07:48:44;11.18;;;6.57;;
56161;SDS011;42045;52.986;6.014;2023-03-31T07:51:11;12.45;;;6.95;;
56161;SDS011;42045;52.986;6.014;2023-03-31T07:53:37;15.98;;;7.05;;
56161;SDS011;42045;52.986;6.014;2023-03-31T07:56:03;14.25;;;7.03;;
56161;SDS011;42045;52.986;6.014;2023-03-31T07:58:29;11.93;;;7.15;;
56161;SDS011;42045;52.986;6.014;2023-03-31T08:00:55;13.80;;;7.43;;
56161;SDS011;42045;52.986;6.014;2023-03-31T08:03:20;15.18;;;7.13;;
56161;SDS011;42045;52.986;6.014;2023-03-31T08:05:46;14.25;;;7.15;;
56161;SDS011;42045;52.986;6.014;2023-03-31T08:08:15;9.45;;;6.38;;
56161;SDS011;42045;52.986;6.014;2023-03-31T08:10:40;12.73;;;6.78;;
56161;SDS011;42045;52.986;6.014;2023-03-31T08:13:06;14.80;;;7.07;;
56161;SDS011;42045;52.986;6.014;2023-03-31T08:15:31;14.30;;;6.72;;
56161;SDS011;42045;52.986;6.014;2023-03-31T08:17:57;14.18;;;6.53;;
56161;SDS011;42045;52.986;6.014;2023-03-31T08:20:23;15.40;;;7.95;;
56161;SDS011;42045;52.986;6.014;2023-03-31T08:22:48;13.75;;;6.72;;
56161;SDS011;42045;52.986;6.014;2023-03-31T08:25:14;15.30;;;6.32;;
56161;SDS011;42045;52.986;6.014;2023-03-31T08:27:40;12.73;;;6.95;;
56161;SDS011;42045;52.986;6.014;2023-03-31T08:30:06;16.02;;;6.65;;
56161;SDS011;42045;52.986;6.014;2023-03-31T08:32:33;14.07;;;6.22;;
56161;SDS011;42045;52.986;6.014;2023-03-31T08:34:59;17.73;;;6.93;;
56161;SDS011;42045;52.986;6.014;2023-03-31T08:37:25;17.05;;;7.00;;
56161;SDS011;42045;52.986;6.014;2023-03-31T08:39:55;13.40;;;6.72;;
56161;SDS011;42045;52.986;6.014;2023-03-31T08:42:38;13.75;;;6.38;;
56161;SDS011;42045;52.986;6.014;2023-03-31T08:47:44;11.60;;;5.90;;
56161;SDS011;42045;52.986;6.014;2023-03-31T08:50:14;10.05;;;6.25;;
56161;SDS011;42045;52.986;6.014;2023-03-31T08:52:43;15.13;;;5.93;;
56161;SDS011;42045;52.986;6.014;2023-03-31T08:55:24;12.95;;;5.88;;
56161;SDS011;42045;52.986;6.014;2023-03-31T08:58:01;13.32;;;5.47;;
56161;SDS011;42045;52.986;6.014;2023-03-31T09:00:42;11.32;;;6.32;;
56161;SDS011;42045;52.986;6.014;2023-03-31T09:03:28;11.98;;;5.40;;
56161;SDS011;42045;52.986;6.014;2023-03-31T09:06:05;11.52;;;5.22;;
56161;SDS011;42045;52.986;6.014;2023-03-31T09:08:36;9.73;;;4.55;;
56161;SDS011;42045;52.986;6.014;2023-03-31T09:22:10;9.93;;;5.47;;
56161;SDS011;42045;52.986;6.014;2023-03-31T09:24:46;8.40;;;4.80;;
56161;SDS011;42045;52.986;6.014;2023-03-31T09:27:26;10.35;;;5.18;;
56161;SDS011;42045;52.986;6.014;2023-03-31T09:30:03;10.52;;;5.57;;
56161;SDS011;42045;52.986;6.014;2023-03-31T09:32:36;10.48;;;5.55;;
56161;SDS011;42045;52.986;6.014;2023-03-31T09:35:17;11.60;;;5.32;;
56161;SDS011;42045;52.986;6.014;2023-03-31T09:37:49;9.98;;;5.00;;
56161;SDS011;42045;52.986;6.014;2023-03-31T09:40:20;7.47;;;4.80;;
56161;SDS011;42045;52.986;6.014;2023-03-31T09:42:50;10.40;;;4.32;;
56161;SDS011;42045;52.986;6.014;2023-03-31T09:45:25;8.93;;;4.57;;
56161;SDS011;42045;52.986;6.014;2023-03-31T09:47:52;8.68;;;4.45;;
56161;SDS011;42045;52.986;6.014;2023-03-31T09:50:20;7.78;;;4.55;;
56161;SDS011;42045;52.986;6.014;2023-03-31T09:52:48;8.65;;;4.20;;
56161;SDS011;42045;52.986;6.014;2023-03-31T09:55:24;9.05;;;4.47;;
56161;SDS011;42045;52.986;6.014;2023-03-31T09:57:50;11.95;;;4.80;;
56161;SDS011;42045;52.986;6.014;2023-03-31T10:00:18;9.38;;;4.85;;
56161;SDS011;42045;52.986;6.014;2023-03-31T10:02:54;10.30;;;4.82;;
56161;SDS011;42045;52.986;6.014;2023-03-31T10:05:47;11.52;;;4.68;;
56161;SDS011;42045;52.986;6.014;2023-03-31T10:08:19;7.38;;;4.68;;
56161;SDS011;42045;52.986;6.014;2023-03-31T10:10:51;10.40;;;4.35;;
56161;SDS011;42045;52.986;6.014;2023-03-31T10:13:19;11.45;;;5.15;;
56161;SDS011;42045;52.986;6.014;2023-03-31T10:15:49;8.07;;;4.45;;
56161;SDS011;42045;52.986;6.014;2023-03-31T10:18:30;8.65;;;4.05;;
56161;SDS011;42045;52.986;6.014;2023-03-31T10:21:02;9.32;;;3.85;;
56161;SDS011;42045;52.986;6.014;2023-03-31T10:23:30;9.38;;;4.20;;
56161;SDS011;42045;52.986;6.014;2023-03-31T10:25:58;9.65;;;4.40;;
56161;SDS011;42045;52.986;6.014;2023-03-31T10:28:25;12.05;;;4.57;;
56161;SDS011;42045;52.986;6.014;2023-03-31T10:30:52;7.35;;;4.53;;
56161;SDS011;42045;52.986;6.014;2023-03-31T10:33:25;11.00;;;5.10;;
56161;SDS011;42045;52.986;6.014;2023-03-31T10:35:54;13.02;;;5.05;;
56161;SDS011;42045;52.986;6.014;2023-03-31T10:38:29;8.80;;;4.30;;
56161;SDS011;42045;52.986;6.014;2023-03-31T10:40:59;10.68;;;4.10;;
56161;SDS011;42045;52.986;6.014;2023-03-31T10:43:29;8.40;;;4.63;;
56161;SDS011;42045;52.986;6.014;2023-03-31T10:46:00;9.45;;;4.20;;
56161;SDS011;42045;52.986;6.014;2023-03-31T10:48:30;9.82;;;4.47;;
56161;SDS011;42045;52.986;6.014;2023-03-31T10:50:58;9.43;;;4.60;;
56161;SDS011;42045;52.986;6.014;2023-03-31T10:53:25;11.15;;;3.97;;
56161;SDS011;42045;52.986;6.014;2023-03-31T11:01:46;9.43;;;3.33;;
56161;SDS011;42045;52.986;6.014;2023-03-31T11:10:00;8.57;;;4.10;;
56161;SDS011;42045;52.986;6.014;2023-03-31T11:12:42;11.65;;;3.92;;
56161;SDS011;42045;52.986;6.014;2023-03-31T11:15:44;11.35;;;4.95;;
56161;SDS011;42045;52.986;6.014;2023-03-31T11:20:56;12.07;;;4.93;;
56161;SDS011;42045;52.986;6.014;2023-03-31T11:24:36;12.27;;;4.68;;
56161;SDS011;42045;52.986;6.014;2023-03-31T11:27:05;10.15;;;5.38;;
56161;SDS011;42045;52.986;6.014;2023-03-31T11:29:34;12.80;;;5.70;;
56161;SDS011;42045;52.986;6.014;2023-03-31T11:41:01;13.40;;;4.30;;
56161;SDS011;42045;52.986;6.014;2023-03-31T11:49:05;12.63;;;4.15;;
56161;SDS011;42045;52.986;6.014;2023-03-31T11:51:52;12.18;;;5.00;;
56161;SDS011;42045;52.986;6.014;2023-03-31T11:54:27;12.70;;;4.20;;
56161;SDS011;42045;52.986;6.014;2023-03-31T11:57:03;10.43;;;4.20;;
56161;SDS011;42045;52.986;6.014;2023-03-31T11:59:43;12.52;;;4.95;;
56161;SDS011;42045;52.986;6.014;2023-03-31T12:02:22;13.13;;;4.43;;
56161;SDS011;42045;52.986;6.014;2023-03-31T12:05:01;13.50;;;5.20;;
56161;SDS011;42045;52.986;6.014;2023-03-31T12:10:10;13.15;;;5.50;;
56161;SDS011;42045;52.986;6.014;2023-03-31T12:15:45;18.48;;;7.75;;
56161;SDS011;42045;52.986;6.014;2023-03-31T12:18:19;16.42;;;6.35;;
56161;SDS011;42045;52.986;6.014;2023-03-31T12:20:52;18.30;;;7.15;;
56161;SDS011;42045;52.986;6.014;2023-03-31T12:23:25;18.17;;;5.50;;
56161;SDS011;42045;52.986;6.014;2023-03-31T12:28:46;13.55;;;5.88;;
56161;SDS011;42045;52.986;6.014;2023-03-31T12:31:19;10.18;;;5.13;;
56161;SDS011;42045;52.986;6.014;2023-03-31T12:34:21;14.65;;;5.55;;
56161;SDS011;42045;52.986;6.014;2023-03-31T12:42:34;16.27;;;7.15;;
56161;SDS011;42045;52.986;6.014;2023-03-31T12:45:23;21.95;;;7.07;;
56161;SDS011;42045;52.986;6.014;2023-03-31T12:55:45;13.55;;;5.85;;
56161;SDS011;42045;52.986;6.014;2023-03-31T13:08:57;8.25;;;2.67;;
56161;SDS011;42045;52.986;6.014;2023-03-31T13:11:44;11.13;;;2.70;;
56161;SDS011;42045;52.986;6.014;2023-03-31T13:14:20;7.43;;;2.00;;
56161;SDS011;42045;52.986;6.014;2023-03-31T13:16:48;6.28;;;1.90;;
56161;SDS011;42045;52.986;6.014;2023-03-31T13:19:34;6.65;;;2.00;;
56161;SDS011;42045;52.986;6.014;2023-03-31T13:22:01;6.30;;;2.67;;
56161;SDS011;42045;52.986;6.014;2023-03-31T13:24:29;4.63;;;1.83;;
56161;SDS011;42045;52.986;6.014;2023-03-31T13:26:57;5.13;;;2.05;;
56161;SDS011;42045;52.986;6.014;2023-03-31T13:29:43;7.50;;;2.60;;
56161;SDS011;42045;52.986;6.014;2023-03-31T13:34:55;9.30;;;2.50;;
56161;SDS011;42045;52.986;6.014;2023-03-31T13:45:53;9.65;;;2.22;;
56161;SDS011;42045;52.986;6.014;2023-03-31T13:51:00;8.77;;;2.67;;
56161;SDS011;42045;52.986;6.014;2023-03-31T13:56:54;9.85;;;2.72;;
56161;SDS011;42045;52.986;6.014;2023-03-31T14:02:45;9.48;;;2.33;;
56161;SDS011;42045;52.986;6.014;2023-03-31T14:05:35;12.07;;;2.75;;
56161;SDS011;42045;52.986;6.014;2023-03-31T14:08:11;6.53;;;2.22;;
56161;SDS011;42045;52.986;6.014;2023-03-31T14:10:53;7.07;;;2.90;;
56161;SDS011;42045;52.986;6.014;2023-03-31T14:13:39;8.20;;;2.47;;
56161;SDS011;42045;52.986;6.014;2023-03-31T14:16:05;7.85;;;2.42;;
56161;SDS011;42045;52.986;6.014;2023-03-31T14:18:33;8.63;;;2.42;;
56161;SDS011;42045;52.986;6.014;2023-03-31T14:27:19;7.63;;;2.50;;
56161;SDS011;42045;52.986;6.014;2023-03-31T14:35:34;6.47;;;2.45;;
56161;SDS011;42045;52.986;6.014;2023-03-31T14:38:09;8.68;;;2.05;;
56161;SDS011;42045;52.986;6.014;2023-03-31T14:40:47;7.15;;;2.10;;
56161;SDS011;42045;52.986;6.014;2023-03-31T14:43:38;6.28;;;1.40;;
56161;SDS011;42045;52.986;6.014;2023-03-31T14:46:08;11.50;;;2.15;;
56161;SDS011;42045;52.986;6.014;2023-03-31T14:48:44;9.77;;;2.20;;
56161;SDS011;42045;52.986;6.014;2023-03-31T14:51:13;8.80;;;2.17;;
56161;SDS011;42045;52.986;6.014;2023-03-31T14:53:40;8.30;;;2.28;;
56161;SDS011;42045;52.986;6.014;2023-03-31T14:56:14;8.50;;;2.45;;
56161;SDS011;42045;52.986;6.014;2023-03-31T14:58:49;6.85;;;1.80;;
56161;SDS011;42045;52.986;6.014;2023-03-31T15:01:24;8.65;;;2.75;;
56161;SDS011;42045;52.986;6.014;2023-03-31T15:03:53;9.13;;;2.38;;
56161;SDS011;42045;52.986;6.014;2023-03-31T15:06:22;7.25;;;2.20;;
56161;SDS011;42045;52.986;6.014;2023-03-31T15:08:50;6.50;;;2.13;;
56161;SDS011;42045;52.986;6.014;2023-03-31T15:11:20;8.98;;;2.70;;
56161;SDS011;42045;52.986;6.014;2023-03-31T15:13:46;9.60;;;2.90;;
56161;SDS011;42045;52.986;6.014;2023-03-31T15:16:18;8.98;;;2.58;;
56161;SDS011;42045;52.986;6.014;2023-03-31T15:18:53;8.00;;;3.55;;
56161;SDS011;42045;52.986;6.014;2023-03-31T15:21:20;11.32;;;3.88;;
56161;SDS011;42045;52.986;6.014;2023-03-31T15:23:51;11.48;;;4.82;;
56161;SDS011;42045;52.986;6.014;2023-03-31T15:29:01;15.30;;;6.30;;
56161;SDS011;42045;52.986;6.014;2023-03-31T15:31:32;10.77;;;4.50;;
56161;SDS011;42045;52.986;6.014;2023-03-31T15:33:58;10.52;;;4.03;;
56161;SDS011;42045;52.986;6.014;2023-03-31T15:36:23;11.05;;;3.22;;
56161;SDS011;42045;52.986;6.014;2023-03-31T15:38:56;12.90;;;3.83;;
56161;SDS011;42045;52.986;6.014;2023-03-31T15:41:23;13.52;;;4.85;;
56161;SDS011;42045;52.986;6.014;2023-03-31T15:44:05;11.23;;;4.10;;
56161;SDS011;42045;52.986;6.014;2023-03-31T15:46:54;11.50;;;4.45;;
56161;SDS011;42045;52.986;6.014;2023-03-31T15:49:37;19.00;;;5.53;;
56161;SDS011;42045;52.986;6.014;2023-03-31T15:52:19;15.07;;;6.85;;
56161;SDS011;42045;52.986;6.014;2023-03-31T15:54:53;11.05;;;5.28;;
56161;SDS011;42045;52.986;6.014;2023-03-31T15:57:19;16.10;;;5.88;;
56161;SDS011;42045;52.986;6.014;2023-03-31T15:59:49;11.82;;;4.97;;
56161;SDS011;42045;52.986;6.014;2023-03-31T16:02:24;10.35;;;4.40;;
56161;SDS011;42045;52.986;6.014;2023-03-31T16:04:56;9.52;;;3.92;;
56161;SDS011;42045;52.986;6.014;2023-03-31T16:07:24;8.23;;;3.03;;
56161;SDS011;42045;52.986;6.014;2023-03-31T16:09:54;9.02;;;2.67;;
56161;SDS011;42045;52.986;6.014;2023-03-31T16:12:35;9.88;;;2.65;;
56161;SDS011;42045;52.986;6.014;2023-03-31T16:15:15;8.75;;;2.60;;
56161;SDS011;42045;52.986;6.014;2023-03-31T16:17:55;5.93;;;2.15;;
56161;SDS011;42045;52.986;6.014;2023-03-31T16:20:34;10.93;;;3.00;;
56161;SDS011;42045;52.986;6.014;2023-03-31T16:23:09;9.80;;;2.65;;
56161;SDS011;42045;52.986;6.014;2023-03-31T16:25:40;7.80;;;3.05;;
56161;SDS011;42045;52.986;6.014;2023-03-31T16:28:06;8.95;;;2.60;;
56161;SDS011;42045;52.986;6.014;2023-03-31T16:30:41;9.48;;;3.00;;
56161;SDS011;42045;52.986;6.014;2023-03-31T16:33:09;13.02;;;3.67;;
56161;SDS011;42045;52.986;6.014;2023-03-31T16:35:46;10.60;;;3.75;;
56161;SDS011;42045;52.986;6.014;2023-03-31T16:38:15;13.30;;;4.03;;
56161;SDS011;42045;52.986;6.014;2023-03-31T16:40:42;10.77;;;3.80;;
56161;SDS011;42045;52.986;6.014;2023-03-31T16:43:11;8.35;;;2.58;;
56161;SDS011;42045;52.986;6.014;2023-03-31T16:45:46;7.65;;;2.35;;
56161;SDS011;42045;52.986;6.014;2023-03-31T16:48:14;8.00;;;4.32;;
56161;SDS011;42045;52.986;6.014;2023-03-31T16:50:41;5.53;;;2.00;;
56161;SDS011;42045;52.986;6.014;2023-03-31T16:53:08;8.05;;;2.00;;
56161;SDS011;42045;52.986;6.014;2023-03-31T16:55:34;4.75;;;2.35;;
56161;SDS011;42045;52.986;6.014;2023-03-31T16:58:00;7.95;;;2.33;;
56161;SDS011;42045;52.986;6.014;2023-03-31T17:00:30;8.88;;;4.28;;
56161;SDS011;42045;52.986;6.014;2023-03-31T17:02:58;7.05;;;2.22;;
56161;SDS011;42045;52.986;6.014;2023-03-31T17:05:25;7.72;;;2.30;;
56161;SDS011;42045;52.986;6.014;2023-03-31T17:07:52;7.00;;;2.40;;
56161;SDS011;42045;52.986;6.014;2023-03-31T17:10:18;6.57;;;2.45;;
56161;SDS011;42045;52.986;6.014;2023-03-31T17:12:44;5.43;;;2.75;;
56161;SDS011;42045;52.986;6.014;2023-03-31T17:15:10;7.85;;;2.67;;
56161;SDS011;42045;52.986;6.014;2023-03-31T17:17:37;4.93;;;2.60;;
56161;SDS011;42045;52.986;6.014;2023-03-31T17:20:06;5.70;;;2.10;;
56161;SDS011;42045;52.986;6.014;2023-03-31T17:22:33;5.85;;;1.85;;
56161;SDS011;42045;52.986;6.014;2023-03-31T17:24:59;4.57;;;1.65;;
56161;SDS011;42045;52.986;6.014;2023-03-31T17:27:26;4.53;;;2.00;;
56161;SDS011;42045;52.986;6.014;2023-03-31T17:29:53;6.68;;;2.50;;
56161;SDS011;42045;52.986;6.014;2023-03-31T17:32:19;5.63;;;2.42;;
56161;SDS011;42045;52.986;6.014;2023-03-31T17:34:45;5.53;;;2.47;;